Mount Olive, Texas
Current Conditions -  °F | °C
As of 10:10 PM on Friday 19 Dec 2014 (Local Time) from K3T5 Reporting Station
Overcast Overcast  
Wind Chill: 52°   Ceiling: 1000
Heat Index: 52°   Visibility: 10mi
Dew Point: 49°   Wind: 9mph
Humidity: 90%   Direction: 20°NNE
Pressure: 30.16"   Gusts: NA
Location:  29.4258°N, 97.1461°W
Report Text: K3T5 200410Z AUTO 02008KT 10SM OVC010 11/10 A3016 RMK AO2 T01100095
Loading
Personal Weather Stations






























Interactive Weather Map New forecast layout! Learn more

10-Day Weather Forecast

Advertisements
Track Severe Weather on mobile